Latest Weather Observations for Broken Hill Airport

IDN60801

Issued at 4:34 pm EDT Saturday 31 January 2015 (issued every 30 minutes, with the page automatically refreshed every 10 minutes)

About weather observations | Map of weather stations | Latest weather observations for NSW | Other Formats
Station Details ID: 047048 Name: BROKEN HILL AIRPORT AWS Lat: -32.00 Lon: 141.47 Height: 281.3 m
Data from the previous 72 hours. | See also: Recent months for locations in New South Wales
Date/Time
EDT
Temp
°C
App
Temp
°C
Dew
Point
Rel
Hum
%
Delta-T
°C
Wind Press
QNH
hPa
Press
MSL
hPa
Rain
since 9 am
mm
Dir
 
Spd
km/h
Gust
km/h
Spd
kts
Gust
kts
31/04:30pm 27.9 21.1 0.6 17 13.2 SW 26 43 14 23 1011.2 1009.6 0.0
31/04:00pm 29.0 22.6 3.1 19 13.1 SSW 26 41 14 22 1011.4 1009.8 0.0
31/03:30pm 27.7 20.8 2.7 20 12.5 SW 28 41 15 22 1011.9 1010.2 0.0
31/03:00pm 27.8 22.2 3.5 21 12.3 SW 22 35 12 19 1012.3 1010.6 0.0
31/02:30pm 27.4 20.2 3.2 21 12.2 SSW 30 39 16 21 1012.5 1010.8 0.0
31/02:00pm 26.1 20.7 2.7 22 11.6 SSW 20 37 11 20 1012.7 1011.0 0.0
31/01:30pm 27.0 21.4 3.5 22 11.8 SSW 22 35 12 19 1013.0 1011.3 0.0
31/01:00pm 25.8 20.6 2.5 22 11.4 SW 19 28 10 15 1013.3 1011.7 0.0
31/12:30pm 25.1 20.4 3.1 24 10.9 S 17 28 9 15 1013.4 1011.8 0.0
31/12:00pm 23.8 19.9 3.2 26 10.1 S 13 20 7 11 1013.8 1012.2 0.0
31/11:30am 23.6 19.5 4.5 29 9.6 SSW 15 20 8 11 1014.0 1012.4 0.0
31/11:00am 22.7 18.9 5.6 33 8.7 SSW 15 20 8 11 1013.8 1012.2 0.0
31/10:30am 21.3 17.7 5.2 35 8.1 SSW 13 19 7 10 1013.9 1012.3 0.0
31/10:00am 20.6 16.9 6.2 39 7.3 S 15 20 8 11 1014.0 1012.4 0.0
31/09:30am 19.5 15.6 6.9 44 6.4 S 17 20 9 11 1013.7 1012.1 0.0
31/09:00am 18.2 14.3 7.3 49 5.6 SSW 17 24 9 13 1013.6 1012.0 0.0
31/08:30am 16.9 12.7 7.5 54 4.8 SSW 19 24 10 13 1013.6 1012.0 0.0
31/08:00am 15.3 12.0 6.3 55 4.4 SW 13 15 7 8 1013.4 1011.8 0.0
31/07:30am 12.8 9.9 4.5 57 3.9 SW 9 11 5 6 1013.2 1011.5 0.0
31/07:00am 11.9 8.1 3.7 57 3.7 WSW 13 15 7 8 1013.1 1011.4 0.0
31/06:30am 11.8 8.2 2.8 54 4.0 SW 11 11 6 6 1012.6 1010.9 0.0
31/06:00am 12.0 8.8 3.0 54 4.0 SW 9 11 5 6 1012.2 1010.5 0.0
31/05:30am 11.7 8.4 2.5 53 4.0 WSW 9 11 5 6 1012.0 1010.3 0.0
31/05:00am 15.6 13.6 2.1 40 6.1 SW 2 6 1 3 1011.4 1009.8 0.0
31/04:30am 15.7 12.7 2.2 40 6.1 WSW 7 9 4 5 1011.4 1009.8 0.0
31/04:00am 15.8 12.8 2.2 40 6.2 SW 7 9 4 5 1011.4 1009.8 0.0
31/03:30am 16.0 13.2 2.1 39 6.3 W 6 7 3 4 1011.4 1009.8 0.0
31/03:00am 15.8 12.8 1.9 39 6.3 S 7 7 4 4 1011.3 1009.7 0.0
31/02:30am 16.2 14.6 2.2 39 6.4 CALM 0 0 0 0 1011.3 1009.7 0.0
31/02:00am 16.6 12.7 1.1 35 6.9 SE 11 13 6 7 1011.4 1009.8 0.0
31/01:30am 17.5 12.8 1.1 33 7.4 SE 15 15 8 8 1011.6 1010.0 0.0
31/01:00am 18.3 14.0 1.3 32 7.7 SE 13 15 7 8 1012.0 1010.3 0.0
31/12:30am 18.5 14.3 1.5 32 7.8 SE 13 15 7 8 1012.1 1010.4 0.0
31/12:00am 19.2 15.1 2.1 32 7.9 SE 13 13 7 7 1012.3 1010.6 0.0
 
Date/Time
EDT
Temp
°C
App
Temp
°C
Dew
Point
Rel
Hum
%
Delta-T
°C
Wind Press
QNH
hPa
Press
MSL
hPa
Rain
since 9 am
mm
Dir
 
Spd
km/h
Gust
km/h
Spd
kts
Gust
kts
30/11:30pm 19.4 15.7 2.3 32 8.0 SE 11 13 6 7 1012.4 1010.7 0.0
30/11:00pm 19.7 15.6 2.1 31 8.2 SSE 13 13 7 7 1012.4 1010.7 0.0
30/10:30pm 21.0 17.2 1.8 28 9.0 SSE 11 11 6 6 1012.3 1010.6 0.0
30/10:00pm 22.6 17.7 2.1 26 9.8 SSE 17 20 9 11 1012.1 1010.4 0.0
30/09:30pm 23.3 18.3 1.6 24 10.3 SSE 17 20 9 11 1011.8 1010.1 0.0
30/09:00pm 24.3 18.8 1.9 23 10.8 S 20 28 11 15 1011.3 1009.7 0.0
30/08:30pm 25.3 19.1 2.1 22 11.3 S 24 30 13 16 1011.0 1009.4 0.0
30/08:00pm 26.4 19.4 1.7 20 12.0 S 28 35 15 19 1010.8 1009.2 0.0
30/07:30pm 27.1 20.8 1.5 19 12.5 S 24 41 13 22 1010.6 1009.0 0.0
30/07:00pm 27.6 20.5 1.2 18 12.8 S 28 35 15 19 1010.3 1008.7 0.0
30/06:30pm 27.9 20.6 -0.2 16 13.4 S 28 41 15 22 1010.2 1008.6 0.0
30/06:14pm 28.4 21.0 -0.7 15 13.8 S 28 46 15 25 1010.2 1008.6 0.0
30/06:00pm 27.9 20.4 -1.1 15 13.6 SSW 28 43 15 23 1010.3 1008.7 0.0
30/05:30pm 28.3 20.6 0.1 16 13.5 S 30 43 16 23 1010.4 1008.8 0.0
30/05:00pm 28.6 21.9 1.2 17 13.4 S 26 43 14 23 1010.6 1009.0 0.0
30/04:56pm 28.5 21.1 1.9 18 13.2 S 30 48 16 26 1010.8 1009.2 0.0
30/04:30pm 28.5 21.4 1.1 17 13.4 SSW 28 43 15 23 1011.0 1009.4 0.0
30/04:00pm 28.2 21.2 1.7 18 13.1 SSW 28 39 15 21 1011.3 1009.7 0.0
30/03:30pm 27.7 20.4 2.7 20 12.5 SSW 30 43 16 23 1011.8 1010.1 0.0
30/03:13pm 28.7 22.0 3.5 20 12.8 S 28 46 15 25 1012.1 1010.4 0.0
30/03:00pm 28.2 22.3 3.8 21 12.5 SSW 24 37 13 20 1012.2 1010.5 0.0
30/02:30pm 27.4 21.1 3.8 22 12.0 S 26 39 14 21 1012.7 1011.0 0.0
30/02:03pm 27.2 20.6 4.3 23 11.7 S 28 48 15 26 1013.1 1011.4 0.0
30/02:00pm 26.7 20.0 3.9 23 11.6 S 28 39 15 21 1013.2 1011.5 0.0
30/01:30pm 26.7 20.2 4.5 24 11.4 SSW 28 39 15 21 1013.6 1012.0 0.0
30/01:22pm 26.4 19.8 4.2 24 11.3 S 28 46 15 25 1013.6 1012.0 0.0
30/01:00pm 25.9 19.2 3.8 24 11.1 SSW 28 43 15 23 1013.8 1012.2 0.0
30/12:30pm 25.2 18.1 3.8 25 10.7 SSE 30 46 16 25 1014.1 1012.5 0.0
30/12:00pm 25.3 19.4 3.9 25 10.7 S 24 33 13 18 1014.4 1012.8 0.0
30/11:30am 24.3 19.9 4.6 28 10.0 SSE 17 26 9 14 1014.7 1013.1 0.0
30/11:00am 22.9 18.4 4.4 30 9.2 SSE 17 24 9 13 1014.7 1013.1 0.0
30/10:30am 22.9 18.2 5.3 32 8.9 SE 19 26 10 14 1014.7 1013.1 0.0
30/10:00am 21.1 15.6 4.2 33 8.3 SSE 22 28 12 15 1014.7 1013.1 0.0
30/09:30am 19.8 14.9 3.9 35 7.7 SE 19 24 10 13 1014.7 1013.1 0.0
30/09:00am 19.5 14.1 4.4 37 7.4 SE 22 28 12 15 1014.7 1013.1 0.0
30/08:30am 18.7 13.9 2.5 34 7.6 SSE 17 20 9 11 1014.4 1012.8 0.0
30/08:00am 17.5 14.5 1.9 35 7.1 SE 7 13 4 7 1014.2 1012.6 0.0
30/07:30am 15.5 12.4 1.6 39 6.2 S 7 11 4 6 1013.9 1012.3 0.0
30/07:00am 14.3 11.2 1.2 41 5.7 SSE 7 11 4 6 1013.6 1012.0 0.0
30/06:30am 14.2 10.4 1.5 42 5.6 SSE 11 15 6 8 1013.0 1011.3 0.0
30/06:00am 14.1 10.5 0.7 40 5.8 S 9 11 5 6 1012.9 1011.2 0.0
30/05:30am 16.0 13.0 0.6 35 6.8 SSW 6 7 3 4 1012.7 1011.0 0.0
30/05:00am 16.5 13.5 0.6 34 7.0 SSW 6 7 3 4 1012.4 1010.7 0.0
30/04:30am 16.6 13.3 0.3 33 7.1 SSW 7 7 4 4 1012.2 1010.5 0.0
30/04:00am 17.3 14.2 0.0 31 7.6 SSW 6 7 3 4 1012.5 1010.8 0.0
30/03:30am 17.9 14.8 0.1 30 7.9 W 6 7 3 4 1012.5 1010.8 0.0
30/03:00am 17.8 14.5 0.0 30 7.8 S 7 11 4 6 1012.6 1010.9 0.0
30/02:30am 19.0 14.2 0.1 28 8.4 SSE 15 19 8 10 1012.6 1010.9 0.0
30/02:00am 19.7 14.5 0.2 27 8.8 SSE 17 20 9 11 1012.9 1011.2 0.0
30/01:30am 20.2 15.0 0.1 26 9.0 SSE 17 20 9 11 1013.0 1011.3 0.0
30/01:00am 20.4 15.5 -0.3 25 9.3 SSE 15 19 8 10 1013.3 1011.7 0.0
30/12:30am 20.7 15.9 0.0 25 9.3 SSE 15 19 8 10 1013.5 1011.9 0.0
30/12:00am 21.5 16.2 -0.5 23 9.9 SSE 17 20 9 11 1013.7 1012.1 0.0
 
Date/Time
EDT
Temp
°C
App
Temp
°C
Dew
Point
Rel
Hum
%
Delta-T
°C
Wind Press
QNH
hPa
Press
MSL
hPa
Rain
since 9 am
mm
Dir
 
Spd
km/h
Gust
km/h
Spd
kts
Gust
kts
29/11:30pm 22.4 16.8 -0.3 22 10.3 SSE 19 24 10 13 1013.7 1012.1 0.0
29/11:00pm 22.8 17.2 0.0 22 10.5 SSE 19 24 10 13 1013.6 1012.0 0.0
29/10:30pm 22.8 17.6 0.0 22 10.5 SSE 17 24 9 13 1013.7 1012.1 0.0
29/10:00pm 23.5 17.9 -0.1 21 10.9 SSE 19 20 10 11 1013.5 1011.9 0.0
29/09:30pm 24.4 18.5 -0.7 19 11.5 SSE 20 26 11 14 1013.2 1011.5 0.0
29/09:00pm 25.3 19.5 0.0 19 11.8 SSE 20 26 11 14 1012.9 1011.2 0.0
29/08:30pm 26.5 19.3 1.0 19 12.3 SSE 28 35 15 19 1012.6 1010.9 0.0
29/08:00pm 27.7 21.0 1.2 18 12.9 SSE 26 37 14 20 1012.3 1010.6 0.0
29/07:30pm 28.6 22.1 2.7 19 13.0 SSE 26 39 14 21 1011.9 1010.2 0.0
29/07:00pm 29.0 22.1 2.3 18 13.4 S 28 43 15 23 1011.4 1009.8 0.0
29/06:48pm 29.5 22.6 2.7 18 13.5 S 28 46 15 25 1011.3 1009.7 0.0
29/06:30pm 29.9 23.5 3.0 18 13.7 S 26 37 14 20 1011.3 1009.7 0.0
29/06:00pm 29.9 23.8 3.0 18 13.7 S 24 37 13 20 1011.5 1009.9 0.0
29/05:30pm 30.3 24.3 3.4 18 13.8 SSW 24 35 13 19 1011.6 1010.0 0.0
29/05:00pm 30.5 24.3 4.3 19 13.7 SSW 26 41 14 22 1011.9 1010.2 0.0
29/04:30pm 30.2 23.7 4.8 20 13.4 S 28 39 15 21 1012.2 1010.5 0.0
29/04:00pm 30.5 24.2 5.7 21 13.3 S 28 43 15 23 1012.5 1010.8 0.0
29/03:30pm 29.6 24.0 5.6 22 12.7 SSW 24 46 13 25 1012.8 1011.1 0.0
29/03:26pm 29.9 23.5 5.2 21 13.1 SSW 28 46 15 25 1012.8 1011.1 0.0
29/03:00pm 30.1 25.0 6.1 22 12.9 SSW 22 35 12 19 1013.2 1011.5 0.0
29/02:30pm 29.1 23.6 5.9 23 12.3 S 24 37 13 20 1013.4 1011.8 0.0
29/02:00pm 29.2 24.9 7.7 26 11.8 S 20 32 11 17 1013.9 1012.3 0.0
29/01:30pm 29.0 24.4 8.1 27 11.5 S 22 33 12 18 1014.1 1012.5 0.0
29/01:00pm 28.7 23.4 8.4 28 11.2 S 26 33 14 18 1014.4 1012.8 0.0
29/12:30pm 27.9 23.8 8.7 30 10.6 S 20 32 11 17 1014.5 1012.9 0.0
29/12:00pm 26.5 22.8 8.0 31 10.1 SSE 17 26 9 14 1014.9 1013.3 0.0
29/11:30am 25.9 22.3 8.4 33 9.6 SE 17 28 9 15 1014.9 1013.3 0.0
29/11:00am 25.5 21.5 8.1 33 9.4 SE 19 24 10 13 1015.0 1013.4 0.0
29/10:30am 24.9 20.5 8.8 36 8.8 SSE 22 30 12 16 1015.0 1013.4 0.0
29/10:00am 24.2 19.5 7.8 35 8.8 SE 22 30 12 16 1015.0 1013.4 0.0
29/09:30am 22.6 17.4 7.2 37 8.1 SE 24 32 13 17 1014.9 1013.3 0.0
29/09:00am 22.0 17.1 7.0 38 7.8 SSE 22 28 12 15 1014.7 1013.1 0.0
29/08:30am 21.0 16.8 7.6 42 7.0 SSE 19 26 10 14 1014.4 1012.8 0.0
29/08:00am 19.8 17.0 8.5 48 6.0 S 13 17 7 9 1014.0 1012.4 0.0
29/07:30am 16.7 14.6 8.1 57 4.4 SW 9 11 5 6 1013.7 1012.1 0.0
29/07:00am 15.7 13.4 7.5 58 4.1 WSW 9 11 5 6 1013.3 1011.7 0.0
29/06:30am 16.5 14.2 7.4 55 4.6 SSW 9 13 5 7 1012.9 1011.2 0.0
29/06:00am 17.5 14.8 7.5 52 5.1 S 11 15 6 8 1012.5 1010.8 0.0
29/05:30am 18.6 15.2 7.7 49 5.6 SSE 15 17 8 9 1012.3 1010.6 0.0
29/05:00am 19.3 16.0 8.0 48 5.9 SSE 15 19 8 10 1012.0 1010.3 0.0
29/04:30am 18.5 15.1 7.6 49 5.6 SSE 15 15 8 8 1012.0 1010.3 0.0
29/04:00am 18.2 15.2 7.6 50 5.5 SSE 13 15 7 8 1012.0 1010.3 0.0
29/03:30am 17.8 15.0 7.0 49 5.5 S 11 13 6 7 1012.1 1010.4 0.0
29/03:00am 18.4 16.4 6.9 47 5.8 SSW 7 9 4 5 1012.2 1010.5 0.0
29/02:30am 18.6 15.8 6.8 46 6.0 S 11 11 6 6 1012.4 1010.7 0.0
29/02:00am 19.6 16.7 6.7 43 6.6 S 11 13 6 7 1012.6 1010.9 0.0
29/01:30am 20.7 17.4 6.6 40 7.2 S 13 15 7 8 1012.8 1011.1 0.0
29/01:00am 21.6 17.6 6.7 38 7.7 S 17 20 9 11 1012.9 1011.2 0.0
29/12:30am 21.9 17.9 6.6 37 7.9 S 17 20 9 11 1013.1 1011.4 0.0
29/12:00am 22.1 18.9 6.7 37 8.0 S 13 17 7 9 1013.3 1011.7 0.0
 
Date/Time
EDT
Temp
°C
App
Temp
°C
Dew
Point
Rel
Hum
%
Delta-T
°C
Wind Press
QNH
hPa
Press
MSL
hPa
Rain
since 9 am
mm
Dir
 
Spd
km/h
Gust
km/h
Spd
kts
Gust
kts
28/11:30pm 23.0 19.0 6.7 35 8.5 S 17 20 9 11 1013.1 1011.4 0.0
28/11:00pm 23.6 19.1 6.8 34 8.8 S 20 24 11 13 1012.9 1011.2 0.0
28/10:30pm 23.8 20.0 7.4 35 8.7 S 17 22 9 12 1012.7 1011.0 0.0
28/10:00pm 24.5 20.7 7.6 34 9.0 S 17 20 9 11 1012.6 1010.9 0.0
28/09:30pm 25.1 21.0 7.7 33 9.3 SSE 19 24 10 13 1012.3 1010.6 0.0
28/09:00pm 25.6 21.3 7.2 31 9.8 S 19 22 10 12 1012.0 1010.3 0.0
28/08:30pm 26.6 20.6 7.1 29 10.4 SSE 28 35 15 19 1011.8 1010.1 0.0
28/08:00pm 27.4 21.5 7.3 28 10.9 SSE 28 35 15 19 1011.4 1009.8 0.0
28/07:30pm 27.9 21.2 7.2 27 11.2 SSE 32 43 17 23 1011.1 1009.5 0.0
28/07:00pm 28.2 22.3 7.4 27 11.3 SSE 28 37 15 20 1011.0 1009.4 0.0
28/06:30pm 28.2 21.8 6.9 26 11.5 SSE 30 41 16 22 1010.9 1009.3 0.0
28/06:00pm 28.8 22.1 7.4 26 11.7 SSE 32 41 17 22 1011.1 1009.5 0.0
28/05:30pm 28.7 21.9 6.7 25 11.8 S 32 46 17 25 1011.0 1009.4 0.0

Other Formats:

Comma delimited format used in spreadsheet applications
http://www.bom.gov.au/fwo/IDN60801/IDN60801.94691.axf

JavaScript Object Notation format (JSON) in row-major order
http://www.bom.gov.au/fwo/IDN60801/IDN60801.94691.json